createdAt,value
2022-08-26T00:01:56.060Z,17.52
2022-08-26T00:04:25.451Z,15.27
2022-08-26T00:06:55.803Z,15.55
2022-08-26T00:09:23.627Z,17.08
2022-08-26T00:11:52.570Z,17.60
2022-08-26T00:14:19.303Z,15.25
2022-08-26T00:16:47.524Z,17.00
2022-08-26T00:19:17.773Z,17.02
2022-08-26T00:21:46.299Z,16.88
2022-08-26T00:24:17.823Z,15.80
2022-08-26T00:26:44.851Z,15.25
2022-08-26T00:29:12.221Z,13.20
2022-08-26T00:31:39.230Z,15.68
2022-08-26T00:34:07.189Z,15.35
2022-08-26T00:36:36.838Z,15.75
2022-08-26T00:39:04.375Z,16.08
2022-08-26T00:41:31.051Z,15.48
2022-08-26T00:43:57.700Z,16.80
2022-08-26T00:46:31.400Z,17.55
2022-08-26T00:49:11.933Z,15.45
2022-08-26T00:51:49.543Z,13.30
2022-08-26T00:54:17.880Z,15.15
2022-08-26T00:57:00.416Z,16.50
2022-08-26T00:59:29.203Z,17.17
2022-08-26T01:02:00.576Z,16.70
2022-08-26T01:04:31.344Z,15.73
2022-08-26T01:06:59.781Z,15.73
2022-08-26T01:09:27.069Z,14.88
2022-08-26T01:11:57.319Z,14.85
2022-08-26T01:14:27.052Z,19.75
2022-08-26T01:16:53.713Z,14.75
2022-08-26T01:19:29.094Z,15.38
2022-08-26T01:22:10.171Z,15.07
2022-08-26T01:24:39.090Z,14.00
2022-08-26T01:27:08.621Z,14.00
2022-08-26T01:29:38.438Z,14.23
2022-08-26T01:32:08.868Z,15.55
2022-08-26T01:34:37.940Z,17.42
2022-08-26T01:37:06.998Z,16.00
2022-08-26T01:39:39.442Z,19.92
2022-08-26T01:44:52.238Z,16.25
2022-08-26T01:47:21.493Z,15.50
2022-08-26T01:49:51.520Z,14.70
2022-08-26T01:52:24.410Z,17.33
2022-08-26T01:54:57.350Z,18.65
2022-08-26T01:57:25.409Z,17.83
2022-08-26T01:59:55.216Z,20.38
2022-08-26T02:02:23.085Z,17.00
2022-08-26T02:04:57.065Z,21.13
2022-08-26T02:07:26.507Z,16.70
2022-08-26T02:09:54.454Z,17.23
2022-08-26T02:12:21.706Z,17.60
2022-08-26T02:14:55.583Z,16.50
2022-08-26T02:17:29.196Z,18.48
2022-08-26T02:19:56.457Z,16.08
2022-08-26T02:22:24.745Z,15.23
2022-08-26T02:24:59.012Z,16.33
2022-08-26T02:27:32.158Z,15.05
2022-08-26T02:30:25.306Z,21.05
2022-08-26T02:32:53.950Z,18.95
2022-08-26T02:35:23.238Z,16.38
2022-08-26T02:37:55.832Z,18.65
2022-08-26T02:40:28.547Z,18.90
2022-08-26T02:42:55.888Z,18.77
2022-08-26T02:45:24.643Z,18.85
2022-08-26T02:47:52.521Z,18.65
2022-08-26T02:50:20.970Z,20.55
2022-08-26T02:52:48.526Z,19.77
2022-08-26T02:55:16.140Z,19.17
2022-08-26T02:57:43.085Z,18.40
2022-08-26T03:00:13.124Z,18.17
2022-08-26T03:02:40.164Z,17.65
2022-08-26T03:05:07.826Z,19.63
2022-08-26T03:07:34.597Z,15.90
2022-08-26T03:10:01.242Z,17.77
2022-08-26T03:12:35.637Z,16.63
2022-08-26T03:15:02.441Z,16.35
2022-08-26T03:17:44.431Z,17.05
2022-08-26T03:20:11.377Z,17.55
2022-08-26T03:22:40.642Z,16.48
2022-08-26T03:25:10.146Z,17.80
2022-08-26T03:27:36.842Z,16.25
2022-08-26T03:30:23.205Z,22.50
2022-08-26T03:32:50.258Z,18.83
2022-08-26T03:35:17.032Z,16.45
2022-08-26T03:37:43.798Z,15.40
2022-08-26T03:40:14.091Z,20.15
2022-08-26T03:42:41.403Z,18.35
2022-08-26T03:45:13.431Z,18.15
2022-08-26T03:47:42.416Z,15.88
2022-08-26T03:50:12.403Z,16.40
2022-08-26T03:52:43.497Z,15.35
2022-08-26T03:55:11.181Z,20.40
2022-08-26T03:57:37.827Z,18.70
2022-08-26T04:00:08.322Z,18.67
2022-08-26T04:02:35.425Z,17.17
2022-08-26T04:05:02.952Z,18.48
2022-08-26T04:07:30.394Z,21.40
2022-08-26T04:09:58.991Z,18.75
2022-08-26T04:12:26.186Z,18.75
2022-08-26T04:14:53.823Z,17.02
2022-08-26T04:17:25.067Z,20.05
2022-08-26T04:19:54.994Z,22.90
2022-08-26T04:22:24.812Z,19.75
2022-08-26T04:24:52.412Z,18.65
2022-08-26T04:27:19.204Z,17.27
2022-08-26T04:29:46.616Z,22.98
2022-08-26T04:32:14.735Z,22.23
2022-08-26T04:34:43.438Z,21.20
2022-08-26T04:37:13.181Z,21.95
2022-08-26T04:39:40.395Z,23.70
2022-08-26T04:42:07.221Z,25.00
2022-08-26T04:44:35.431Z,23.85
2022-08-26T04:47:02.242Z,24.05
2022-08-26T04:49:35.469Z,21.67
2022-08-26T04:54:32.068Z,21.88
2022-08-26T04:56:59.183Z,21.95
2022-08-26T04:59:25.912Z,21.73
2022-08-26T05:01:56.449Z,21.33
2022-08-26T05:04:23.329Z,19.05
2022-08-26T05:06:50.884Z,22.13
2022-08-26T05:09:19.302Z,19.95
2022-08-26T05:11:48.594Z,24.02
2022-08-26T05:16:45.465Z,22.42
2022-08-26T05:19:15.298Z,24.65
2022-08-26T05:21:47.252Z,23.20
2022-08-26T05:24:14.837Z,21.58
2022-08-26T05:26:41.924Z,20.95
2022-08-26T05:29:11.644Z,23.50
2022-08-26T05:31:38.920Z,24.48
2022-08-26T05:34:05.963Z,22.48
2022-08-26T05:36:35.692Z,23.90
2022-08-26T05:39:06.136Z,21.27
2022-08-26T05:41:38.572Z,21.95
2022-08-26T05:46:36.605Z,24.13
2022-08-26T05:49:05.018Z,22.42
2022-08-26T05:51:32.800Z,18.08
2022-08-26T05:54:02.305Z,19.60
2022-08-26T05:56:30.682Z,25.55
2022-08-26T05:58:58.377Z,22.02
2022-08-26T06:01:28.599Z,18.40
2022-08-26T06:04:01.776Z,19.42
2022-08-26T06:06:34.555Z,22.05
2022-08-26T06:09:04.423Z,20.83
2022-08-26T06:11:33.119Z,21.15
2022-08-26T06:14:05.371Z,21.02
2022-08-26T06:16:35.260Z,19.95
2022-08-26T06:19:11.071Z,21.88
2022-08-26T06:21:41.186Z,20.80
2022-08-26T06:24:29.230Z,19.80
2022-08-26T06:27:01.925Z,17.42
2022-08-26T06:29:30.899Z,21.10
2022-08-26T06:31:58.247Z,16.58
2022-08-26T06:34:30.561Z,17.00
2022-08-26T06:36:59.856Z,17.50
2022-08-26T06:39:30.717Z,21.45
2022-08-26T06:41:59.237Z,19.35
2022-08-26T06:44:26.860Z,18.45
2022-08-26T06:46:53.868Z,16.35
2022-08-26T06:49:27.233Z,16.65
2022-08-26T06:51:58.202Z,15.07
2022-08-26T06:54:26.143Z,14.57
2022-08-26T06:56:55.875Z,23.85
2022-08-26T06:59:23.989Z,18.90
2022-08-26T07:01:50.771Z,18.65
2022-08-26T07:04:20.337Z,17.52
2022-08-26T07:06:52.405Z,16.23
2022-08-26T07:09:22.010Z,19.58
2022-08-26T07:11:49.307Z,13.35
2022-08-26T07:14:16.829Z,18.83
2022-08-26T07:16:47.456Z,15.95
2022-08-26T07:19:14.430Z,24.08
2022-08-26T07:21:44.129Z,21.73
2022-08-26T07:24:11.378Z,14.30
2022-08-26T07:26:39.300Z,14.68
2022-08-26T07:29:12.376Z,17.83
2022-08-26T07:31:42.227Z,14.80
2022-08-26T07:34:09.348Z,20.02
2022-08-26T07:36:36.616Z,14.63
2022-08-26T07:39:03.560Z,12.82
2022-08-26T07:44:02.335Z,15.80
2022-08-26T07:46:31.169Z,15.45
2022-08-26T07:48:58.698Z,15.52
2022-08-26T07:51:27.164Z,11.77
2022-08-26T07:53:56.927Z,14.27
2022-08-26T07:56:25.244Z,15.25
2022-08-26T07:58:52.944Z,16.05
2022-08-26T08:01:25.723Z,13.32
2022-08-26T08:03:53.963Z,18.25
2022-08-26T08:06:22.542Z,11.20
2022-08-26T08:08:55.196Z,13.38
2022-08-26T08:11:23.657Z,15.73
2022-08-26T08:13:56.071Z,15.07
2022-08-26T08:16:25.932Z,15.75
2022-08-26T08:18:53.413Z,17.10
2022-08-26T08:21:21.963Z,17.15
2022-08-26T08:23:52.394Z,9.43
2022-08-26T08:26:19.153Z,19.10
2022-08-26T08:28:47.858Z,16.98
2022-08-26T08:31:45.119Z,17.40
2022-08-26T08:34:10.242Z,14.75
2022-08-26T08:36:36.880Z,9.77
2022-08-26T08:39:03.743Z,14.13
2022-08-26T08:41:31.347Z,11.30
2022-08-26T08:44:00.590Z,9.45
2022-08-26T08:46:28.251Z,10.82
2022-08-26T08:48:59.677Z,10.48
2022-08-26T08:51:35.579Z,11.45
2022-08-26T08:54:02.771Z,11.70
2022-08-26T08:56:57.608Z,13.68
2022-08-26T08:59:31.325Z,12.80
2022-08-26T09:02:08.143Z,9.88
2022-08-26T09:05:02.906Z,8.68
2022-08-26T09:07:36.866Z,10.00
2022-08-26T09:10:39.002Z,9.38
2022-08-26T09:13:09.371Z,12.43
2022-08-26T09:15:49.556Z,9.90
2022-08-26T09:18:46.967Z,10.95
2022-08-26T09:21:18.870Z,14.10
2022-08-26T09:23:49.505Z,11.65
2022-08-26T09:26:39.338Z,13.65
2022-08-26T09:29:15.522Z,11.45
2022-08-26T09:31:42.550Z,8.43
2022-08-26T09:34:17.252Z,13.02
2022-08-26T09:36:54.989Z,7.80
2022-08-26T09:39:33.694Z,9.23
2022-08-26T09:42:10.299Z,12.70
2022-08-26T09:44:58.054Z,10.27
2022-08-26T09:47:33.891Z,9.52
2022-08-26T09:50:29.122Z,12.38
2022-08-26T09:53:09.823Z,6.38
2022-08-26T09:55:42.058Z,6.90
2022-08-26T09:58:14.544Z,13.38
2022-08-26T10:00:56.417Z,9.15
2022-08-26T10:03:27.662Z,8.20
2022-08-26T10:06:08.342Z,11.18
2022-08-26T10:08:44.170Z,9.65
2022-08-26T10:11:26.485Z,8.95
2022-08-26T10:14:04.715Z,10.43
2022-08-26T10:16:48.575Z,8.45
2022-08-26T10:19:55.864Z,9.30
2022-08-26T10:24:58.794Z,15.63
2022-08-26T10:27:53.731Z,9.20
2022-08-26T10:30:31.697Z,10.15
2022-08-26T10:33:07.127Z,15.57
2022-08-26T10:35:37.125Z,10.80
2022-08-26T10:38:16.723Z,9.95
2022-08-26T10:40:58.952Z,10.80
2022-08-26T10:43:41.007Z,8.25
2022-08-26T10:46:16.325Z,8.75
2022-08-26T10:48:57.637Z,10.32
2022-08-26T10:51:35.547Z,9.55
2022-08-26T10:54:13.307Z,14.05
2022-08-26T10:56:57.559Z,14.18
2022-08-26T10:59:31.287Z,21.02
2022-08-26T11:02:03.739Z,10.65
2022-08-26T11:04:45.772Z,15.70
2022-08-26T11:07:33.473Z,14.70
2022-08-26T11:10:04.403Z,10.32
2022-08-26T11:12:37.441Z,12.40
2022-08-26T11:15:11.206Z,9.27
2022-08-26T11:17:46.335Z,10.85
2022-08-26T11:20:39.161Z,9.93
2022-08-26T11:23:22.375Z,8.27
2022-08-26T11:26:07.583Z,10.70
2022-08-26T11:28:44.243Z,9.52
2022-08-26T11:31:51.576Z,10.32
2022-08-26T11:35:00.458Z,14.00
2022-08-26T11:37:33.287Z,11.48
2022-08-26T11:40:02.990Z,9.15
2022-08-26T11:42:40.869Z,9.48
2022-08-26T11:45:36.130Z,13.02
2022-08-26T11:48:22.372Z,10.73
2022-08-26T11:51:22.363Z,15.20
2022-08-26T11:53:49.354Z,14.10
2022-08-26T11:56:26.997Z,10.60
2022-08-26T11:59:02.024Z,7.93
2022-08-26T12:04:05.803Z,11.25
2022-08-26T12:06:45.314Z,10.82
2022-08-26T12:09:35.592Z,10.73
2022-08-26T12:12:12.117Z,9.48
2022-08-26T12:14:39.621Z,10.80
2022-08-26T12:17:14.121Z,10.07
2022-08-26T12:19:40.868Z,11.00
2022-08-26T12:22:20.947Z,14.65
2022-08-26T12:24:52.239Z,7.75
2022-08-26T12:27:27.292Z,14.95
2022-08-26T12:30:13.993Z,15.75
2022-08-26T12:32:57.593Z,10.50
2022-08-26T12:35:26.798Z,8.98
2022-08-26T12:37:54.380Z,9.32
2022-08-26T12:40:31.354Z,12.57
2022-08-26T12:43:00.799Z,15.00
2022-08-26T12:45:33.696Z,11.02
2022-08-26T12:48:10.556Z,11.75
2022-08-26T12:50:49.043Z,11.20
2022-08-26T12:53:22.563Z,10.50
2022-08-26T12:55:53.955Z,8.80
2022-08-26T12:58:31.667Z,11.02
2022-08-26T13:01:04.758Z,12.07
2022-08-26T13:03:34.400Z,13.35
2022-08-26T13:06:16.475Z,12.30
2022-08-26T13:09:08.846Z,11.05
2022-08-26T13:11:35.645Z,13.02
2022-08-26T13:14:08.205Z,10.90
2022-08-26T13:16:36.911Z,7.80
2022-08-26T13:19:10.368Z,14.75
2022-08-26T13:21:49.377Z,11.48
2022-08-26T13:24:22.423Z,10.82
2022-08-26T13:26:50.067Z,8.38
2022-08-26T13:29:17.903Z,11.98
2022-08-26T13:31:45.915Z,8.63
2022-08-26T13:34:18.055Z,10.60
2022-08-26T13:36:45.794Z,9.88
2022-08-26T13:39:13.351Z,11.43
2022-08-26T13:41:40.165Z,15.05
2022-08-26T13:44:07.134Z,15.40
2022-08-26T13:46:34.204Z,12.80
2022-08-26T13:49:01.035Z,12.68
2022-08-26T13:51:28.444Z,10.05
2022-08-26T13:53:56.431Z,11.38
2022-08-26T13:56:23.940Z,12.48
2022-08-26T13:58:50.659Z,11.10
2022-08-26T14:01:17.891Z,11.85
2022-08-26T14:03:45.671Z,13.63
2022-08-26T14:06:15.032Z,13.85
2022-08-26T14:08:42.648Z,9.70
2022-08-26T14:11:09.812Z,10.15
2022-08-26T14:13:36.996Z,13.32
2022-08-26T14:16:07.868Z,13.93
2022-08-26T14:18:41.781Z,11.88
2022-08-26T14:21:12.891Z,12.05
2022-08-26T14:23:40.213Z,9.93
2022-08-26T14:26:11.678Z,13.93
2022-08-26T14:28:54.565Z,19.88
2022-08-26T14:31:23.389Z,10.55
2022-08-26T14:33:50.311Z,21.80
2022-08-26T14:36:28.980Z,11.73
2022-08-26T14:38:56.976Z,12.93
2022-08-26T14:41:27.167Z,14.35
2022-08-26T14:44:15.079Z,12.48
2022-08-26T14:46:48.566Z,10.85
2022-08-26T14:49:16.657Z,9.52
2022-08-26T14:51:43.485Z,8.82
2022-08-26T14:54:14.682Z,12.05
2022-08-26T14:56:49.401Z,12.23
2022-08-26T14:59:22.660Z,8.80
2022-08-26T15:01:49.718Z,11.63
2022-08-26T15:04:17.290Z,10.45
2022-08-26T15:06:44.166Z,11.73
2022-08-26T15:09:11.258Z,11.02
2022-08-26T15:11:40.443Z,8.68
2022-08-26T15:14:07.561Z,13.80
2022-08-26T15:16:41.715Z,12.23
2022-08-26T15:19:08.544Z,13.18
2022-08-26T15:21:36.537Z,11.45
2022-08-26T15:24:04.599Z,17.90
2022-08-26T15:26:32.747Z,9.75
2022-08-26T15:29:03.061Z,13.95
2022-08-26T15:31:33.834Z,13.65
2022-08-26T15:34:04.506Z,7.75
2022-08-26T15:36:33.217Z,9.95
2022-08-26T15:39:00.845Z,13.07
2022-08-26T15:41:29.329Z,12.93
2022-08-26T15:43:56.984Z,13.18
2022-08-26T15:46:24.186Z,6.80
2022-08-26T15:48:51.860Z,10.88
2022-08-26T15:51:33.873Z,16.13
2022-08-26T15:56:32.484Z,10.55
2022-08-26T15:59:02.297Z,12.18
2022-08-26T16:01:31.723Z,9.02
2022-08-26T16:03:58.654Z,9.95
2022-08-26T16:06:28.753Z,14.88
2022-08-26T16:08:56.324Z,12.55
2022-08-26T16:11:23.647Z,14.80
2022-08-26T16:13:50.605Z,6.22
2022-08-26T16:16:17.779Z,11.02
2022-08-26T16:18:45.302Z,13.20
2022-08-26T16:21:21.549Z,13.38
2022-08-26T16:23:48.644Z,13.55
2022-08-26T16:26:19.158Z,13.65
2022-08-26T16:28:45.966Z,11.85
2022-08-26T16:31:13.716Z,18.27
2022-08-26T16:33:40.733Z,9.07
2022-08-26T16:36:08.783Z,14.02
2022-08-26T16:38:36.597Z,9.77
2022-08-26T16:41:04.275Z,17.77
2022-08-26T16:43:31.018Z,12.70
2022-08-26T16:45:57.799Z,11.57
2022-08-26T16:48:24.630Z,12.95
2022-08-26T16:50:51.684Z,15.18
2022-08-26T16:53:18.980Z,14.98
2022-08-26T16:55:48.326Z,12.93
2022-08-26T16:58:15.423Z,11.60
2022-08-26T17:00:42.868Z,11.77
2022-08-26T17:03:10.014Z,13.45
2022-08-26T17:05:37.108Z,11.90
2022-08-26T17:08:04.223Z,13.50
2022-08-26T17:10:31.855Z,12.45
2022-08-26T17:12:58.866Z,18.33
2022-08-26T17:15:25.996Z,14.65
2022-08-26T17:17:53.791Z,14.73
2022-08-26T17:20:22.466Z,11.43
2022-08-26T17:22:51.021Z,12.32
2022-08-26T17:25:24.081Z,16.17
2022-08-26T17:27:51.629Z,14.32
2022-08-26T17:30:18.974Z,10.02
2022-08-26T17:32:46.486Z,10.90
2022-08-26T17:35:16.037Z,8.98
2022-08-26T17:37:43.368Z,13.77
2022-08-26T17:40:15.411Z,16.30
2022-08-26T17:45:10.553Z,7.55
2022-08-26T17:47:38.263Z,12.75
2022-08-26T17:50:07.061Z,14.23
2022-08-26T17:52:33.712Z,19.55
2022-08-26T17:55:00.538Z,18.73
2022-08-26T17:57:27.298Z,12.80
2022-08-26T17:59:56.556Z,17.50
2022-08-26T18:02:23.937Z,15.95
2022-08-26T18:04:50.598Z,12.95
2022-08-26T18:07:17.735Z,19.85
2022-08-26T18:09:44.628Z,13.98
2022-08-26T18:12:12.034Z,13.45
2022-08-26T18:14:38.888Z,15.18
2022-08-26T18:17:05.935Z,14.23
2022-08-26T18:19:32.749Z,8.90
2022-08-26T18:21:59.546Z,16.63
2022-08-26T18:24:30.301Z,14.80
2022-08-26T18:26:57.260Z,13.55
2022-08-26T18:29:25.443Z,14.57
2022-08-26T18:31:52.497Z,10.05
2022-08-26T18:34:19.772Z,12.48
2022-08-26T18:36:47.575Z,15.60
2022-08-26T18:39:15.474Z,11.13
2022-08-26T18:41:45.585Z,11.15
2022-08-26T18:44:14.740Z,6.72
2022-08-26T18:46:41.809Z,14.13
2022-08-26T18:49:10.773Z,10.45
2022-08-26T18:51:37.985Z,11.20
2022-08-26T18:54:06.777Z,17.73
2022-08-26T18:56:35.465Z,11.15
2022-08-26T18:59:03.211Z,12.52
2022-08-26T19:01:31.156Z,13.55
2022-08-26T19:04:00.005Z,13.65
2022-08-26T19:06:29.409Z,12.88
2022-08-26T19:08:58.171Z,12.35
2022-08-26T19:11:32.324Z,13.60
2022-08-26T19:14:07.205Z,14.60
2022-08-26T19:16:34.177Z,17.95
2022-08-26T19:19:01.935Z,14.20
2022-08-26T19:21:29.687Z,11.82
2022-08-26T19:23:58.911Z,17.85
2022-08-26T19:26:27.042Z,17.23
2022-08-26T19:28:54.340Z,15.50
2022-08-26T19:31:21.553Z,11.35
2022-08-26T19:33:48.391Z,14.82
2022-08-26T19:36:18.599Z,15.05
2022-08-26T19:38:45.868Z,12.95
2022-08-26T19:41:36.998Z,11.00
2022-08-26T19:44:13.081Z,12.90
2022-08-26T19:46:40.598Z,14.63
2022-08-26T19:49:07.405Z,12.15
2022-08-26T19:51:35.430Z,16.73
2022-08-26T19:54:02.915Z,14.88
2022-08-26T19:56:29.872Z,12.25
2022-08-26T19:58:56.967Z,15.15
2022-08-26T20:01:24.404Z,13.15
2022-08-26T20:03:51.355Z,11.95
2022-08-26T20:06:18.630Z,13.10
2022-08-26T20:08:45.873Z,12.00
2022-08-26T20:11:15.806Z,12.60
2022-08-26T20:13:43.838Z,11.90
2022-08-26T20:16:12.070Z,10.52
2022-08-26T20:18:59.579Z,14.25
2022-08-26T20:21:27.581Z,15.25
2022-08-26T20:24:01.318Z,13.25
2022-08-26T20:26:31.656Z,13.98
2022-08-26T20:29:01.282Z,10.93
2022-08-26T20:31:28.663Z,17.27
2022-08-26T20:33:55.663Z,11.70
2022-08-26T20:36:26.753Z,16.30
2022-08-26T20:41:22.049Z,17.80
2022-08-26T20:43:48.811Z,13.60
2022-08-26T20:46:17.383Z,12.18
2022-08-26T20:48:44.603Z,14.52
2022-08-26T20:51:11.649Z,15.20
2022-08-26T20:53:38.470Z,16.20
2022-08-26T20:56:08.632Z,14.07
2022-08-26T20:58:36.507Z,13.40
2022-08-26T21:01:07.518Z,14.32
2022-08-26T21:03:35.972Z,15.00
2022-08-26T21:06:03.723Z,16.20
2022-08-26T21:08:33.156Z,17.38
2022-08-26T21:11:00.852Z,15.10
2022-08-26T21:13:35.773Z,13.57
2022-08-26T21:16:11.066Z,14.27
2022-08-26T21:18:38.869Z,13.45
2022-08-26T21:21:08.982Z,15.25
2022-08-26T21:23:36.670Z,13.80
2022-08-26T21:26:05.532Z,21.58
2022-08-26T21:28:32.466Z,16.77
2022-08-26T21:31:03.809Z,14.73
2022-08-26T21:33:30.574Z,15.77
2022-08-26T21:35:57.325Z,14.75
2022-08-26T21:38:24.002Z,12.77
2022-08-26T21:41:02.450Z,19.02
2022-08-26T21:43:35.557Z,12.45
2022-08-26T21:46:14.379Z,11.55
2022-08-26T21:48:50.724Z,16.38
2022-08-26T21:51:20.873Z,17.70
2022-08-26T21:53:48.220Z,12.10
2022-08-26T21:56:18.069Z,16.83
2022-08-26T21:58:44.838Z,15.05
2022-08-26T22:01:17.304Z,13.60
2022-08-26T22:03:47.568Z,14.05
2022-08-26T22:06:19.790Z,16.60
2022-08-26T22:08:46.650Z,11.80
2022-08-26T22:11:14.220Z,11.75
2022-08-26T22:13:42.537Z,14.43
2022-08-26T22:16:09.933Z,18.95
2022-08-26T22:18:37.839Z,16.15
2022-08-26T22:21:10.058Z,17.63
2022-08-26T22:23:38.076Z,12.95
2022-08-26T22:26:09.971Z,12.27
2022-08-26T22:28:36.939Z,13.43
2022-08-26T22:31:03.634Z,17.13
2022-08-26T22:33:30.460Z,11.77
2022-08-26T22:35:57.141Z,12.68
2022-08-26T22:38:23.943Z,9.88
2022-08-26T22:40:56.049Z,14.48
2022-08-26T22:43:24.794Z,13.15
2022-08-26T22:45:52.971Z,15.05
2022-08-26T22:48:25.128Z,12.73
2022-08-26T22:50:58.253Z,14.70
2022-08-26T22:53:26.967Z,11.52
2022-08-26T22:55:54.421Z,12.70
2022-08-26T22:58:21.723Z,12.48
2022-08-26T23:00:59.300Z,13.25
2022-08-26T23:03:26.767Z,22.45
2022-08-26T23:05:55.478Z,15.70
2022-08-26T23:08:23.600Z,15.65
2022-08-26T23:10:51.291Z,15.77
2022-08-26T23:13:18.735Z,18.27
2022-08-26T23:15:46.322Z,22.30
2022-08-26T23:18:14.552Z,17.98
2022-08-26T23:20:41.877Z,14.82
2022-08-26T23:23:08.727Z,13.70
2022-08-26T23:25:35.546Z,13.75
2022-08-26T23:28:02.759Z,11.73
2022-08-26T23:30:32.483Z,18.27
2022-08-26T23:32:59.517Z,9.20
2022-08-26T23:35:27.229Z,11.85
2022-08-26T23:37:53.943Z,13.20
2022-08-26T23:40:25.645Z,12.77
2022-08-26T23:42:54.281Z,16.60
2022-08-26T23:45:22.511Z,14.25
2022-08-26T23:47:53.291Z,13.68
2022-08-26T23:50:48.640Z,13.60
2022-08-26T23:53:22.232Z,10.55
2022-08-26T23:55:51.723Z,16.55
2022-08-26T23:58:20.377Z,18.25
